KCFD/CFD METAR and TAF weather

Enter ICAO airport designator
Station Type Date Time Source
KCFD METAR 2021/07/30 07:35 UTC NOAA

KCFD 300735Z AUTO 00000KT 10SM CLR 26/25 A3005 RMK AO2 T02610250


Station Type Date Time Source
KCFD Decoded METAR 2021/07/30 07:35 UTC NOAA

Station name not available
Jul 30, 2021 - 03:35 AM EDT / 2021.07.30 0735 UTC
Wind: Calm:0
Visibility: 10 mile(s):0
Sky conditions: clear
Temperature: 79.0 F (26.1 C)
Dew Point: 77.0 F (25.0 C)
Relative Humidity: 93%
Pressure (altimeter): 30.05 in. Hg (1017 hPa)
ob: KCFD 300735Z AUTO 00000KT 10SM CLR 26/25 A3005 RMK AO2 T02610250
cycle: 7

Station Type Date Time Source
KCFD TAF UTC NOAA

Error!

Example: see airport list